sensor_id;sensor_type;location;lat;lon;timestamp;temperature;humidity
28460;DHT22;32528;45.712;9.192;2022-10-24T00:00:42;18.70;99.90
28460;DHT22;32528;45.712;9.192;2022-10-24T00:02:43;18.60;99.90
28460;DHT22;32528;45.712;9.192;2022-10-24T00:04:43;18.70;99.90
28460;DHT22;32528;45.712;9.192;2022-10-24T00:06:44;18.70;99.90
28460;DHT22;32528;45.712;9.192;2022-10-24T00:08:45;18.70;99.90
28460;DHT22;32528;45.712;9.192;2022-10-24T00:10:46;18.60;99.90
28460;DHT22;32528;45.712;9.192;2022-10-24T00:12:47;18.60;99.90
28460;DHT22;32528;45.712;9.192;2022-10-24T00:14:48;18.60;99.90
28460;DHT22;32528;45.712;9.192;2022-10-24T00:16:48;18.60;99.90
28460;DHT22;32528;45.712;9.192;2022-10-24T00:18:49;18.50;99.90
28460;DHT22;32528;45.712;9.192;2022-10-24T00:20:50;18.50;99.90
28460;DHT22;32528;45.712;9.192;2022-10-24T00:22:50;18.50;99.90
28460;DHT22;32528;45.712;9.192;2022-10-24T00:24:51;18.50;99.90
28460;DHT22;32528;45.712;9.192;2022-10-24T00:26:51;18.50;99.90
28460;DHT22;32528;45.712;9.192;2022-10-24T00:28:52;18.50;99.90
28460;DHT22;32528;45.712;9.192;2022-10-24T00:30:53;18.50;99.90
28460;DHT22;32528;45.712;9.192;2022-10-24T00:32:53;18.50;99.90
28460;DHT22;32528;45.712;9.192;2022-10-24T00:34:54;18.60;99.90
28460;DHT22;32528;45.712;9.192;2022-10-24T00:36:54;18.60;99.90
28460;DHT22;32528;45.712;9.192;2022-10-24T00:38:55;18.60;99.90
28460;DHT22;32528;45.712;9.192;2022-10-24T00:40:56;18.50;99.90
28460;DHT22;32528;45.712;9.192;2022-10-24T00:42:56;18.60;99.90
28460;DHT22;32528;45.712;9.192;2022-10-24T00:44:57;18.60;99.90
28460;DHT22;32528;45.712;9.192;2022-10-24T00:48:58;18.60;99.90
28460;DHT22;32528;45.712;9.192;2022-10-24T00:51:01;18.70;99.90
28460;DHT22;32528;45.712;9.192;2022-10-24T00:53:02;18.60;99.90
28460;DHT22;32528;45.712;9.192;2022-10-24T00:55:03;18.60;99.90
28460;DHT22;32528;45.712;9.192;2022-10-24T00:57:08;18.70;99.90
28460;DHT22;32528;45.712;9.192;2022-10-24T00:59:11;18.70;99.90
28460;DHT22;32528;45.712;9.192;2022-10-24T01:01:12;18.70;99.90
28460;DHT22;32528;45.712;9.192;2022-10-24T01:03:12;18.70;99.90
28460;DHT22;32528;45.712;9.192;2022-10-24T01:05:13;18.80;99.90
28460;DHT22;32528;45.712;9.192;2022-10-24T01:07:27;18.70;99.90
28460;DHT22;32528;45.712;9.192;2022-10-24T01:09:34;18.70;99.90
28460;DHT22;32528;45.712;9.192;2022-10-24T01:11:44;18.70;99.90
28460;DHT22;32528;45.712;9.192;2022-10-24T01:16:26;18.70;99.90
28460;DHT22;32528;45.712;9.192;2022-10-24T01:20:56;18.70;99.90
28460;DHT22;32528;45.712;9.192;2022-10-24T01:34:22;18.70;99.90
28460;DHT22;32528;45.712;9.192;2022-10-24T01:36:29;18.70;99.90
28460;DHT22;32528;45.712;9.192;2022-10-24T01:38:53;18.70;99.90
28460;DHT22;32528;45.712;9.192;2022-10-24T01:40:56;18.70;99.90
28460;DHT22;32528;45.712;9.192;2022-10-24T01:42:58;18.70;99.90
28460;DHT22;32528;45.712;9.192;2022-10-24T01:45:01;18.70;99.90
28460;DHT22;32528;45.712;9.192;2022-10-24T01:47:18;18.70;99.90
28460;DHT22;32528;45.712;9.192;2022-10-24T01:49:21;18.70;99.90
28460;DHT22;32528;45.712;9.192;2022-10-24T01:51:24;18.70;99.90
28460;DHT22;32528;45.712;9.192;2022-10-24T01:53:26;18.70;99.90
28460;DHT22;32528;45.712;9.192;2022-10-24T01:55:29;18.70;99.90
28460;DHT22;32528;45.712;9.192;2022-10-24T01:57:31;18.70;99.90
28460;DHT22;32528;45.712;9.192;2022-10-24T02:01:32;18.70;99.90
28460;DHT22;32528;45.712;9.192;2022-10-24T02:05:41;18.70;99.90
28460;DHT22;32528;45.712;9.192;2022-10-24T02:07:45;18.70;99.90
28460;DHT22;32528;45.712;9.192;2022-10-24T02:09:47;18.70;99.90
28460;DHT22;32528;45.712;9.192;2022-10-24T02:11:49;18.70;99.90
28460;DHT22;32528;45.712;9.192;2022-10-24T02:13:54;18.70;99.90
28460;DHT22;32528;45.712;9.192;2022-10-24T02:15:57;18.70;99.90
28460;DHT22;32528;45.712;9.192;2022-10-24T02:17:58;18.60;99.90
28460;DHT22;32528;45.712;9.192;2022-10-24T02:19:59;18.70;99.90
28460;DHT22;32528;45.712;9.192;2022-10-24T02:22:02;18.70;99.90
28460;DHT22;32528;45.712;9.192;2022-10-24T02:26:13;18.60;99.90
28460;DHT22;32528;45.712;9.192;2022-10-24T02:28:18;18.60;99.90
28460;DHT22;32528;45.712;9.192;2022-10-24T02:30:21;18.70;99.90
28460;DHT22;32528;45.712;9.192;2022-10-24T02:32:31;18.70;99.90
28460;DHT22;32528;45.712;9.192;2022-10-24T02:34:32;18.70;99.90
28460;DHT22;32528;45.712;9.192;2022-10-24T02:36:34;18.60;99.90
28460;DHT22;32528;45.712;9.192;2022-10-24T02:38:36;18.70;99.90
28460;DHT22;32528;45.712;9.192;2022-10-24T02:40:37;18.70;99.90
28460;DHT22;32528;45.712;9.192;2022-10-24T02:42:38;18.70;99.90
28460;DHT22;32528;45.712;9.192;2022-10-24T02:44:40;18.70;99.90
28460;DHT22;32528;45.712;9.192;2022-10-24T02:46:41;18.70;99.90
28460;DHT22;32528;45.712;9.192;2022-10-24T02:48:46;18.70;99.90
28460;DHT22;32528;45.712;9.192;2022-10-24T02:50:48;18.70;99.90
28460;DHT22;32528;45.712;9.192;2022-10-24T02:52:49;18.70;99.90
28460;DHT22;32528;45.712;9.192;2022-10-24T02:54:50;18.70;99.90
28460;DHT22;32528;45.712;9.192;2022-10-24T02:56:55;18.70;99.90
28460;DHT22;32528;45.712;9.192;2022-10-24T02:58:56;18.70;99.90
28460;DHT22;32528;45.712;9.192;2022-10-24T03:00:57;18.70;99.90
28460;DHT22;32528;45.712;9.192;2022-10-24T03:02:58;18.70;99.90
28460;DHT22;32528;45.712;9.192;2022-10-24T03:04:58;18.60;99.90
28460;DHT22;32528;45.712;9.192;2022-10-24T03:06:59;18.60;99.90
28460;DHT22;32528;45.712;9.192;2022-10-24T03:09:00;18.60;99.90
28460;DHT22;32528;45.712;9.192;2022-10-24T03:11:01;18.60;99.90
28460;DHT22;32528;45.712;9.192;2022-10-24T03:13:01;18.60;99.90
28460;DHT22;32528;45.712;9.192;2022-10-24T03:15:03;18.60;99.90
28460;DHT22;32528;45.712;9.192;2022-10-24T03:17:04;18.70;99.90
28460;DHT22;32528;45.712;9.192;2022-10-24T03:19:05;18.60;99.90
28460;DHT22;32528;45.712;9.192;2022-10-24T03:21:06;18.70;99.90
28460;DHT22;32528;45.712;9.192;2022-10-24T03:23:06;18.70;99.90
28460;DHT22;32528;45.712;9.192;2022-10-24T03:25:07;18.70;99.90
28460;DHT22;32528;45.712;9.192;2022-10-24T03:27:08;18.70;99.90
28460;DHT22;32528;45.712;9.192;2022-10-24T03:29:08;18.70;99.90
28460;DHT22;32528;45.712;9.192;2022-10-24T03:31:09;18.70;99.90
28460;DHT22;32528;45.712;9.192;2022-10-24T03:33:09;18.70;99.90
28460;DHT22;32528;45.712;9.192;2022-10-24T03:35:10;18.70;99.90
28460;DHT22;32528;45.712;9.192;2022-10-24T03:37:11;18.70;99.90
28460;DHT22;32528;45.712;9.192;2022-10-24T03:39:11;18.70;99.90
28460;DHT22;32528;45.712;9.192;2022-10-24T03:41:12;18.70;99.90
28460;DHT22;32528;45.712;9.192;2022-10-24T03:43:13;18.60;99.90
28460;DHT22;32528;45.712;9.192;2022-10-24T03:45:13;18.70;99.90
28460;DHT22;32528;45.712;9.192;2022-10-24T03:47:15;18.60;99.90
28460;DHT22;32528;45.712;9.192;2022-10-24T03:49:15;18.60;99.90
28460;DHT22;32528;45.712;9.192;2022-10-24T03:51:16;18.60;99.90
28460;DHT22;32528;45.712;9.192;2022-10-24T03:53:16;18.60;99.90
28460;DHT22;32528;45.712;9.192;2022-10-24T03:55:17;18.60;99.90
28460;DHT22;32528;45.712;9.192;2022-10-24T03:57:18;18.60;99.90
28460;DHT22;32528;45.712;9.192;2022-10-24T03:59:18;18.60;99.90
28460;DHT22;32528;45.712;9.192;2022-10-24T04:01:19;18.60;99.90
28460;DHT22;32528;45.712;9.192;2022-10-24T04:03:20;18.60;99.90
28460;DHT22;32528;45.712;9.192;2022-10-24T04:05:20;18.60;99.90
28460;DHT22;32528;45.712;9.192;2022-10-24T04:07:21;18.60;99.90
28460;DHT22;32528;45.712;9.192;2022-10-24T04:09:22;18.60;99.90
28460;DHT22;32528;45.712;9.192;2022-10-24T04:11:23;18.50;99.90
28460;DHT22;32528;45.712;9.192;2022-10-24T04:13:23;18.60;99.90
28460;DHT22;32528;45.712;9.192;2022-10-24T04:15:24;18.50;99.90
28460;DHT22;32528;45.712;9.192;2022-10-24T04:17:25;18.50;99.90
28460;DHT22;32528;45.712;9.192;2022-10-24T04:19:25;18.50;99.90
28460;DHT22;32528;45.712;9.192;2022-10-24T04:21:26;18.40;99.90
28460;DHT22;32528;45.712;9.192;2022-10-24T04:23:26;18.40;99.90
28460;DHT22;32528;45.712;9.192;2022-10-24T04:25:27;18.40;99.90
28460;DHT22;32528;45.712;9.192;2022-10-24T04:27:28;18.40;99.90
28460;DHT22;32528;45.712;9.192;2022-10-24T04:29:28;18.40;99.90
28460;DHT22;32528;45.712;9.192;2022-10-24T04:31:29;18.30;99.90
28460;DHT22;32528;45.712;9.192;2022-10-24T04:33:29;18.40;99.90
28460;DHT22;32528;45.712;9.192;2022-10-24T04:35:30;18.40;99.90
28460;DHT22;32528;45.712;9.192;2022-10-24T04:37:31;18.40;99.90
28460;DHT22;32528;45.712;9.192;2022-10-24T04:39:31;18.50;99.90
28460;DHT22;32528;45.712;9.192;2022-10-24T04:41:32;18.50;99.90
28460;DHT22;32528;45.712;9.192;2022-10-24T04:43:33;18.50;99.90
28460;DHT22;32528;45.712;9.192;2022-10-24T04:45:33;18.50;99.90
28460;DHT22;32528;45.712;9.192;2022-10-24T04:47:34;18.50;99.90
28460;DHT22;32528;45.712;9.192;2022-10-24T04:49:34;18.50;99.90
28460;DHT22;32528;45.712;9.192;2022-10-24T04:51:35;18.50;99.90
28460;DHT22;32528;45.712;9.192;2022-10-24T04:53:36;18.40;99.90
28460;DHT22;32528;45.712;9.192;2022-10-24T04:55:36;18.40;99.90
28460;DHT22;32528;45.712;9.192;2022-10-24T04:57:37;18.40;99.90
28460;DHT22;32528;45.712;9.192;2022-10-24T04:59:38;18.50;99.90
28460;DHT22;32528;45.712;9.192;2022-10-24T05:01:38;18.40;99.90
28460;DHT22;32528;45.712;9.192;2022-10-24T05:03:39;18.50;99.90
28460;DHT22;32528;45.712;9.192;2022-10-24T05:05:40;18.50;99.90
28460;DHT22;32528;45.712;9.192;2022-10-24T05:07:40;18.40;99.90
28460;DHT22;32528;45.712;9.192;2022-10-24T05:09:41;18.40;99.90
28460;DHT22;32528;45.712;9.192;2022-10-24T05:11:41;18.40;99.90
28460;DHT22;32528;45.712;9.192;2022-10-24T05:13:42;18.30;99.90
28460;DHT22;32528;45.712;9.192;2022-10-24T05:15:43;18.30;99.90
28460;DHT22;32528;45.712;9.192;2022-10-24T05:17:43;18.30;99.90
28460;DHT22;32528;45.712;9.192;2022-10-24T05:19:44;18.40;99.90
28460;DHT22;32528;45.712;9.192;2022-10-24T05:21:45;18.40;99.90
28460;DHT22;32528;45.712;9.192;2022-10-24T05:23:45;18.30;99.90
28460;DHT22;32528;45.712;9.192;2022-10-24T05:25:46;18.40;99.90
28460;DHT22;32528;45.712;9.192;2022-10-24T05:27:47;18.40;99.90
28460;DHT22;32528;45.712;9.192;2022-10-24T05:29:47;18.40;99.90
28460;DHT22;32528;45.712;9.192;2022-10-24T05:31:48;18.40;99.90
28460;DHT22;32528;45.712;9.192;2022-10-24T05:33:48;18.40;99.90
28460;DHT22;32528;45.712;9.192;2022-10-24T05:35:49;18.40;99.90
28460;DHT22;32528;45.712;9.192;2022-10-24T05:37:50;18.40;99.90
28460;DHT22;32528;45.712;9.192;2022-10-24T05:39:51;18.40;99.90
28460;DHT22;32528;45.712;9.192;2022-10-24T05:41:51;18.40;99.90
28460;DHT22;32528;45.712;9.192;2022-10-24T05:43:52;18.40;99.90
28460;DHT22;32528;45.712;9.192;2022-10-24T05:45:52;18.40;99.90
28460;DHT22;32528;45.712;9.192;2022-10-24T05:47:53;18.40;99.90
28460;DHT22;32528;45.712;9.192;2022-10-24T05:49:53;18.30;99.90
28460;DHT22;32528;45.712;9.192;2022-10-24T05:51:54;18.30;99.90
28460;DHT22;32528;45.712;9.192;2022-10-24T05:53:55;18.40;99.90
28460;DHT22;32528;45.712;9.192;2022-10-24T05:55:56;18.40;99.90
28460;DHT22;32528;45.712;9.192;2022-10-24T05:57:56;18.40;99.90
28460;DHT22;32528;45.712;9.192;2022-10-24T05:59:57;18.30;99.90
28460;DHT22;32528;45.712;9.192;2022-10-24T06:01:58;18.30;99.90
28460;DHT22;32528;45.712;9.192;2022-10-24T06:03:58;18.20;99.90
28460;DHT22;32528;45.712;9.192;2022-10-24T06:06:03;18.30;99.90
28460;DHT22;32528;45.712;9.192;2022-10-24T06:08:04;18.30;99.90
28460;DHT22;32528;45.712;9.192;2022-10-24T06:10:05;18.30;99.90
28460;DHT22;32528;45.712;9.192;2022-10-24T06:12:06;18.30;99.90
28460;DHT22;32528;45.712;9.192;2022-10-24T06:14:07;18.30;99.90
28460;DHT22;32528;45.712;9.192;2022-10-24T06:16:09;18.30;99.90
28460;DHT22;32528;45.712;9.192;2022-10-24T06:18:10;18.30;99.90
28460;DHT22;32528;45.712;9.192;2022-10-24T06:20:10;18.30;99.90
28460;DHT22;32528;45.712;9.192;2022-10-24T06:22:11;18.50;99.90
28460;DHT22;32528;45.712;9.192;2022-10-24T06:24:11;18.50;99.90
28460;DHT22;32528;45.712;9.192;2022-10-24T06:26:12;18.60;99.90
28460;DHT22;32528;45.712;9.192;2022-10-24T06:28:13;18.70;99.90
28460;DHT22;32528;45.712;9.192;2022-10-24T06:30:14;18.60;99.90
28460;DHT22;32528;45.712;9.192;2022-10-24T06:32:15;18.60;99.90
28460;DHT22;32528;45.712;9.192;2022-10-24T06:34:16;18.60;99.90
28460;DHT22;32528;45.712;9.192;2022-10-24T06:36:16;18.70;99.90
28460;DHT22;32528;45.712;9.192;2022-10-24T06:38:17;18.70;99.90
28460;DHT22;32528;45.712;9.192;2022-10-24T06:40:17;18.70;99.90
28460;DHT22;32528;45.712;9.192;2022-10-24T06:42:18;18.80;99.90
28460;DHT22;32528;45.712;9.192;2022-10-24T06:44:19;18.90;99.90
28460;DHT22;32528;45.712;9.192;2022-10-24T06:46:19;19.00;99.90
28460;DHT22;32528;45.712;9.192;2022-10-24T06:48:22;19.10;99.90
28460;DHT22;32528;45.712;9.192;2022-10-24T06:50:23;19.20;99.90
28460;DHT22;32528;45.712;9.192;2022-10-24T06:52:24;19.20;99.90
28460;DHT22;32528;45.712;9.192;2022-10-24T06:54:24;19.20;99.90
28460;DHT22;32528;45.712;9.192;2022-10-24T06:56:25;19.30;99.90
28460;DHT22;32528;45.712;9.192;2022-10-24T06:58:29;19.40;99.90
28460;DHT22;32528;45.712;9.192;2022-10-24T07:00:29;19.40;99.90
28460;DHT22;32528;45.712;9.192;2022-10-24T07:02:30;19.30;99.90
28460;DHT22;32528;45.712;9.192;2022-10-24T07:04:30;19.30;99.90
28460;DHT22;32528;45.712;9.192;2022-10-24T07:06:31;19.30;99.90
28460;DHT22;32528;45.712;9.192;2022-10-24T07:08:32;19.30;99.90
28460;DHT22;32528;45.712;9.192;2022-10-24T07:10:32;19.30;99.90
28460;DHT22;32528;45.712;9.192;2022-10-24T07:12:33;19.30;99.90
28460;DHT22;32528;45.712;9.192;2022-10-24T07:14:34;19.40;99.90
28460;DHT22;32528;45.712;9.192;2022-10-24T07:16:34;19.30;99.90
28460;DHT22;32528;45.712;9.192;2022-10-24T07:18:35;19.40;99.90
28460;DHT22;32528;45.712;9.192;2022-10-24T07:20:36;19.30;99.90
28460;DHT22;32528;45.712;9.192;2022-10-24T07:22:37;19.40;99.90
28460;DHT22;32528;45.712;9.192;2022-10-24T07:24:38;19.40;99.90
28460;DHT22;32528;45.712;9.192;2022-10-24T07:26:38;19.40;99.90
28460;DHT22;32528;45.712;9.192;2022-10-24T07:28:39;19.40;99.90
28460;DHT22;32528;45.712;9.192;2022-10-24T07:30:42;19.40;99.90
28460;DHT22;32528;45.712;9.192;2022-10-24T07:32:43;19.30;99.90
28460;DHT22;32528;45.712;9.192;2022-10-24T07:34:43;19.40;99.90
28460;DHT22;32528;45.712;9.192;2022-10-24T07:36:46;19.40;99.90
28460;DHT22;32528;45.712;9.192;2022-10-24T07:38:47;19.40;99.90
28460;DHT22;32528;45.712;9.192;2022-10-24T07:40:48;19.50;99.90
28460;DHT22;32528;45.712;9.192;2022-10-24T07:42:48;19.40;99.90
28460;DHT22;32528;45.712;9.192;2022-10-24T07:44:49;19.40;99.90
28460;DHT22;32528;45.712;9.192;2022-10-24T07:46:49;19.50;99.90
28460;DHT22;32528;45.712;9.192;2022-10-24T07:48:51;19.60;99.90
28460;DHT22;32528;45.712;9.192;2022-10-24T07:50:52;19.60;99.90
28460;DHT22;32528;45.712;9.192;2022-10-24T07:52:53;19.60;99.90
28460;DHT22;32528;45.712;9.192;2022-10-24T07:54:54;19.60;99.90
28460;DHT22;32528;45.712;9.192;2022-10-24T07:56:55;19.70;99.90
28460;DHT22;32528;45.712;9.192;2022-10-24T07:58:55;19.70;99.90
28460;DHT22;32528;45.712;9.192;2022-10-24T08:01:01;19.70;99.90
28460;DHT22;32528;45.712;9.192;2022-10-24T08:03:02;19.60;99.90
28460;DHT22;32528;45.712;9.192;2022-10-24T08:05:03;19.60;99.90
28460;DHT22;32528;45.712;9.192;2022-10-24T08:07:03;19.70;99.90
28460;DHT22;32528;45.712;9.192;2022-10-24T08:09:04;19.70;99.90
28460;DHT22;32528;45.712;9.192;2022-10-24T08:11:08;19.80;99.90
28460;DHT22;32528;45.712;9.192;2022-10-24T08:13:09;19.80;99.90
28460;DHT22;32528;45.712;9.192;2022-10-24T08:15:10;19.80;99.90
28460;DHT22;32528;45.712;9.192;2022-10-24T08:17:11;19.80;99.90
28460;DHT22;32528;45.712;9.192;2022-10-24T08:19:11;19.80;99.90
28460;DHT22;32528;45.712;9.192;2022-10-24T08:21:13;19.70;99.90
28460;DHT22;32528;45.712;9.192;2022-10-24T08:23:13;19.70;99.90
28460;DHT22;32528;45.712;9.192;2022-10-24T08:25:14;19.80;99.90
28460;DHT22;32528;45.712;9.192;2022-10-24T08:27:15;19.80;99.90
28460;DHT22;32528;45.712;9.192;2022-10-24T08:29:15;19.90;99.90
28460;DHT22;32528;45.712;9.192;2022-10-24T08:31:22;19.90;99.90
28460;DHT22;32528;45.712;9.192;2022-10-24T08:33:23;19.90;99.90
28460;DHT22;32528;45.712;9.192;2022-10-24T08:35:23;19.90;99.90
28460;DHT22;32528;45.712;9.192;2022-10-24T08:37:25;19.80;99.90
28460;DHT22;32528;45.712;9.192;2022-10-24T08:39:25;19.80;99.90
28460;DHT22;32528;45.712;9.192;2022-10-24T08:43:27;19.80;99.90
28460;DHT22;32528;45.712;9.192;2022-10-24T08:45:38;20.00;99.90
28460;DHT22;32528;45.712;9.192;2022-10-24T08:47:42;20.30;99.90
28460;DHT22;32528;45.712;9.192;2022-10-24T08:49:46;20.40;99.90
28460;DHT22;32528;45.712;9.192;2022-10-24T08:51:59;20.50;99.90
28460;DHT22;32528;45.712;9.192;2022-10-24T08:54:00;20.50;99.90
28460;DHT22;32528;45.712;9.192;2022-10-24T08:56:01;20.60;99.90
28460;DHT22;32528;45.712;9.192;2022-10-24T08:58:02;20.60;99.90
28460;DHT22;32528;45.712;9.192;2022-10-24T09:00:11;20.50;99.90
28460;DHT22;32528;45.712;9.192;2022-10-24T09:02:22;20.50;99.90
28460;DHT22;32528;45.712;9.192;2022-10-24T09:04:25;20.50;99.90
28460;DHT22;32528;45.712;9.192;2022-10-24T09:06:28;20.60;99.90
28460;DHT22;32528;45.712;9.192;2022-10-24T09:08:34;20.50;99.90
28460;DHT22;32528;45.712;9.192;2022-10-24T09:10:53;20.50;99.90
28460;DHT22;32528;45.712;9.192;2022-10-24T09:12:54;20.50;99.90
28460;DHT22;32528;45.712;9.192;2022-10-24T09:14:58;20.40;99.90
28460;DHT22;32528;45.712;9.192;2022-10-24T09:17:00;20.50;99.90
28460;DHT22;32528;45.712;9.192;2022-10-24T09:19:01;20.50;99.90
28460;DHT22;32528;45.712;9.192;2022-10-24T09:21:02;20.70;99.90
28460;DHT22;32528;45.712;9.192;2022-10-24T09:23:04;20.70;99.90
28460;DHT22;32528;45.712;9.192;2022-10-24T09:25:06;20.80;99.90
28460;DHT22;32528;45.712;9.192;2022-10-24T09:27:17;20.70;99.90
28460;DHT22;32528;45.712;9.192;2022-10-24T09:29:19;20.60;99.90
28460;DHT22;32528;45.712;9.192;2022-10-24T09:31:21;20.50;99.90
28460;DHT22;32528;45.712;9.192;2022-10-24T09:35:25;20.40;99.90
28460;DHT22;32528;45.712;9.192;2022-10-24T09:37:34;20.30;99.90
28460;DHT22;32528;45.712;9.192;2022-10-24T09:39:35;20.30;99.90
28460;DHT22;32528;45.712;9.192;2022-10-24T09:41:35;20.30;99.90
28460;DHT22;32528;45.712;9.192;2022-10-24T09:43:47;20.30;99.90
28460;DHT22;32528;45.712;9.192;2022-10-24T09:45:50;20.40;99.90
28460;DHT22;32528;45.712;9.192;2022-10-24T09:48:02;20.50;99.90
28460;DHT22;32528;45.712;9.192;2022-10-24T09:50:04;20.50;99.90
28460;DHT22;32528;45.712;9.192;2022-10-24T09:52:47;20.60;99.90
28460;DHT22;32528;45.712;9.192;2022-10-24T09:54:29;20.60;99.90
28460;DHT22;32528;45.712;9.192;2022-10-24T09:56:36;20.50;99.90
28460;DHT22;32528;45.712;9.192;2022-10-24T09:58:38;20.50;99.90
28460;DHT22;32528;45.712;9.192;2022-10-24T10:00:39;20.50;99.90
28460;DHT22;32528;45.712;9.192;2022-10-24T10:02:39;20.50;99.90
28460;DHT22;32528;45.712;9.192;2022-10-24T10:09:32;20.40;99.90
28460;DHT22;32528;45.712;9.192;2022-10-24T10:11:34;20.20;99.90
28460;DHT22;32528;45.712;9.192;2022-10-24T10:13:44;20.10;99.90
28460;DHT22;32528;45.712;9.192;2022-10-24T10:17:53;20.00;99.90
28460;DHT22;32528;45.712;9.192;2022-10-24T10:19:54;19.90;99.90
28460;DHT22;32528;45.712;9.192;2022-10-24T10:23:56;19.70;99.90
28460;DHT22;32528;45.712;9.192;2022-10-24T10:26:09;19.70;99.90
28460;DHT22;32528;45.712;9.192;2022-10-24T10:28:20;19.70;99.90
28460;DHT22;32528;45.712;9.192;2022-10-24T10:30:21;19.70;99.90
28460;DHT22;32528;45.712;9.192;2022-10-24T10:32:24;19.70;99.90
28460;DHT22;32528;45.712;9.192;2022-10-24T10:34:39;19.60;99.90
28460;DHT22;32528;45.712;9.192;2022-10-24T10:38:50;19.70;99.90
28460;DHT22;32528;45.712;9.192;2022-10-24T10:40:53;19.60;99.90
28460;DHT22;32528;45.712;9.192;2022-10-24T10:49:38;19.50;99.90
28460;DHT22;32528;45.712;9.192;2022-10-24T11:00:45;19.80;99.90
28460;DHT22;32528;45.712;9.192;2022-10-24T11:05:26;20.10;99.90
28460;DHT22;32528;45.712;9.192;2022-10-24T11:07:22;20.00;99.90
28460;DHT22;32528;45.712;9.192;2022-10-24T11:09:38;20.00;99.90
28460;DHT22;32528;45.712;9.192;2022-10-24T11:11:43;20.10;99.90
28460;DHT22;32528;45.712;9.192;2022-10-24T11:13:48;20.10;99.90
28460;DHT22;32528;45.712;9.192;2022-10-24T11:15:53;20.10;99.90
28460;DHT22;32528;45.712;9.192;2022-10-24T11:17:58;20.10;99.90
28460;DHT22;32528;45.712;9.192;2022-10-24T11:22:17;20.30;99.90
28460;DHT22;32528;45.712;9.192;2022-10-24T11:24:19;20.40;99.90
28460;DHT22;32528;45.712;9.192;2022-10-24T11:26:31;20.50;99.90
28460;DHT22;32528;45.712;9.192;2022-10-24T11:28:44;20.60;99.90
28460;DHT22;32528;45.712;9.192;2022-10-24T11:30:50;20.60;99.90
28460;DHT22;32528;45.712;9.192;2022-10-24T11:32:53;20.60;99.90
28460;DHT22;32528;45.712;9.192;2022-10-24T11:34:58;20.70;99.90
28460;DHT22;32528;45.712;9.192;2022-10-24T11:37:11;20.80;99.90
28460;DHT22;32528;45.712;9.192;2022-10-24T11:39:28;20.80;99.90
28460;DHT22;32528;45.712;9.192;2022-10-24T11:43:38;20.70;99.90
28460;DHT22;32528;45.712;9.192;2022-10-24T11:45:47;20.90;99.90
28460;DHT22;32528;45.712;9.192;2022-10-24T11:50:19;21.30;99.90
28460;DHT22;32528;45.712;9.192;2022-10-24T11:52:22;21.50;99.90
28460;DHT22;32528;45.712;9.192;2022-10-24T11:54:25;21.70;99.90
28460;DHT22;32528;45.712;9.192;2022-10-24T11:58:32;22.10;99.90
28460;DHT22;32528;45.712;9.192;2022-10-24T12:11:47;22.60;99.90
28460;DHT22;32528;45.712;9.192;2022-10-24T12:20:24;22.70;99.90
28460;DHT22;32528;45.712;9.192;2022-10-24T12:22:29;22.60;99.90
28460;DHT22;32528;45.712;9.192;2022-10-24T12:24:33;22.40;99.90
28460;DHT22;32528;45.712;9.192;2022-10-24T12:26:35;22.30;99.90
28460;DHT22;32528;45.712;9.192;2022-10-24T12:28:35;22.30;99.90
28460;DHT22;32528;45.712;9.192;2022-10-24T12:30:37;22.30;99.90
28460;DHT22;32528;45.712;9.192;2022-10-24T12:32:43;22.30;99.90
28460;DHT22;32528;45.712;9.192;2022-10-24T12:34:46;22.20;99.90
28460;DHT22;32528;45.712;9.192;2022-10-24T12:37:28;22.10;99.90
28460;DHT22;32528;45.712;9.192;2022-10-24T12:39:30;22.00;99.90
28460;DHT22;32528;45.712;9.192;2022-10-24T12:43:33;21.80;99.90
28460;DHT22;32528;45.712;9.192;2022-10-24T12:45:34;21.70;99.90
28460;DHT22;32528;45.712;9.192;2022-10-24T12:47:39;21.90;99.90
28460;DHT22;32528;45.712;9.192;2022-10-24T12:49:40;22.00;99.90
28460;DHT22;32528;45.712;9.192;2022-10-24T12:51:41;22.10;99.90
28460;DHT22;32528;45.712;9.192;2022-10-24T12:54:24;22.10;99.90
28460;DHT22;32528;45.712;9.192;2022-10-24T12:56:08;22.10;99.90
28460;DHT22;32528;45.712;9.192;2022-10-24T13:00:38;22.10;99.90
28460;DHT22;32528;45.712;9.192;2022-10-24T13:09:33;22.60;99.90
28460;DHT22;32528;45.712;9.192;2022-10-24T13:20:24;23.40;99.90
28460;DHT22;32528;45.712;9.192;2022-10-24T13:22:26;23.20;99.90
28460;DHT22;32528;45.712;9.192;2022-10-24T13:28:37;23.40;99.90
28460;DHT22;32528;45.712;9.192;2022-10-24T13:30:42;23.30;99.90
28460;DHT22;32528;45.712;9.192;2022-10-24T13:32:43;23.30;99.90
28460;DHT22;32528;45.712;9.192;2022-10-24T13:36:56;23.30;99.90
28460;DHT22;32528;45.712;9.192;2022-10-24T13:38:58;23.30;99.90
28460;DHT22;32528;45.712;9.192;2022-10-24T13:41:00;23.30;99.90
28460;DHT22;32528;45.712;9.192;2022-10-24T13:43:03;23.50;99.90
28460;DHT22;32528;45.712;9.192;2022-10-24T13:45:06;23.70;99.90
28460;DHT22;32528;45.712;9.192;2022-10-24T13:47:17;23.60;99.90
28460;DHT22;32528;45.712;9.192;2022-10-24T13:50:04;23.70;99.90
28460;DHT22;32528;45.712;9.192;2022-10-24T13:51:43;23.70;99.90
28460;DHT22;32528;45.712;9.192;2022-10-24T13:53:52;23.60;99.90
28460;DHT22;32528;45.712;9.192;2022-10-24T13:55:53;23.40;99.90
28460;DHT22;32528;45.712;9.192;2022-10-24T13:57:58;23.20;99.90
28460;DHT22;32528;45.712;9.192;2022-10-24T14:00:00;23.00;99.90
28460;DHT22;32528;45.712;9.192;2022-10-24T14:02:05;22.90;99.90
28460;DHT22;32528;45.712;9.192;2022-10-24T14:04:06;22.70;99.90
28460;DHT22;32528;45.712;9.192;2022-10-24T14:06:07;22.50;99.90
28460;DHT22;32528;45.712;9.192;2022-10-24T14:08:08;22.40;99.90
28460;DHT22;32528;45.712;9.192;2022-10-24T14:10:12;22.30;99.90
28460;DHT22;32528;45.712;9.192;2022-10-24T14:12:20;22.20;99.90
28460;DHT22;32528;45.712;9.192;2022-10-24T14:14:26;22.10;99.90
28460;DHT22;32528;45.712;9.192;2022-10-24T14:16:28;22.00;99.90
28460;DHT22;32528;45.712;9.192;2022-10-24T14:18:29;21.90;99.90
28460;DHT22;32528;45.712;9.192;2022-10-24T14:20:31;21.80;99.90
28460;DHT22;32528;45.712;9.192;2022-10-24T14:22:36;21.70;99.90
28460;DHT22;32528;45.712;9.192;2022-10-24T14:24:41;21.70;99.90
28460;DHT22;32528;45.712;9.192;2022-10-24T14:26:42;21.60;99.90
28460;DHT22;32528;45.712;9.192;2022-10-24T14:28:46;21.50;99.90
28460;DHT22;32528;45.712;9.192;2022-10-24T14:30:56;21.50;99.90
28460;DHT22;32528;45.712;9.192;2022-10-24T14:35:12;21.30;99.90
28460;DHT22;32528;45.712;9.192;2022-10-24T14:37:15;21.20;99.90
28460;DHT22;32528;45.712;9.192;2022-10-24T14:39:19;21.20;99.90
28460;DHT22;32528;45.712;9.192;2022-10-24T14:41:26;21.20;99.90
28460;DHT22;32528;45.712;9.192;2022-10-24T14:43:28;21.10;99.90
28460;DHT22;32528;45.712;9.192;2022-10-24T14:45:29;21.10;99.90
28460;DHT22;32528;45.712;9.192;2022-10-24T14:47:31;21.10;99.90